createdAt,value
2023-01-12T00:00:49.612Z,86.61
2023-01-12T00:02:50.790Z,86.52
2023-01-12T00:04:52.034Z,86.39
2023-01-12T00:06:53.169Z,86.43
2023-01-12T00:08:54.257Z,86.81
2023-01-12T00:12:57.106Z,86.66
2023-01-12T00:14:58.616Z,86.65
2023-01-12T00:16:59.682Z,85.75
2023-01-12T00:19:00.887Z,85.68
2023-01-12T00:21:02.142Z,85.77
2023-01-12T00:23:03.148Z,85.82
2023-01-12T00:25:04.072Z,85.86
2023-01-12T00:27:05.114Z,86.26
2023-01-12T00:29:06.784Z,85.24
2023-01-12T00:31:07.904Z,85.61
2023-01-12T00:33:08.914Z,85.21
2023-01-12T00:35:10.005Z,85.74
2023-01-12T00:37:11.356Z,85.99
2023-01-12T00:39:12.790Z,85.38
2023-01-12T00:41:14.400Z,85.53
2023-01-12T00:43:15.836Z,85.01
2023-01-12T00:45:17.435Z,85.41
2023-01-12T00:47:18.490Z,84.99
2023-01-12T00:49:19.993Z,84.99
2023-01-12T00:51:21.735Z,84.89
2023-01-12T00:53:23.220Z,85.09
2023-01-12T00:55:24.265Z,84.74
2023-01-12T00:57:25.574Z,84.79
2023-01-12T00:59:27.045Z,84.83
2023-01-12T01:02:12.165Z,84.74
2023-01-12T01:06:14.783Z,84.21
2023-01-12T01:08:15.788Z,84.02
2023-01-12T01:10:17.005Z,83.86
2023-01-12T01:12:18.680Z,83.75
2023-01-12T01:14:19.891Z,83.82
2023-01-12T01:16:21.020Z,84.26
2023-01-12T01:18:22.454Z,84.25
2023-01-12T01:20:24.337Z,84.13
2023-01-12T01:22:26.089Z,83.59
2023-01-12T01:24:27.473Z,82.92
2023-01-12T01:26:28.745Z,83.1
2023-01-12T01:28:30.440Z,83.24
2023-01-12T01:30:31.486Z,82.4
2023-01-12T01:32:32.517Z,83.46
2023-01-12T01:34:34.286Z,83.52
2023-01-12T01:38:37.560Z,82.98
2023-01-12T01:40:39.007Z,82.26
2023-01-12T01:42:40.612Z,82.54
2023-01-12T01:44:41.878Z,82.02
2023-01-12T01:48:44.407Z,82.99
2023-01-12T01:50:45.629Z,82.59
2023-01-12T01:52:47.342Z,82.37
2023-01-12T01:54:49.195Z,82.53
2023-01-12T01:56:50.752Z,82.02
2023-01-12T01:58:52.186Z,81.9
2023-01-12T02:00:53.827Z,81.31
2023-01-12T02:02:55.636Z,81.65
2023-01-12T02:04:57.075Z,81.54
2023-01-12T02:06:58.407Z,81.47
2023-01-12T02:08:59.779Z,80.37
2023-01-12T02:11:01.085Z,80.96
2023-01-12T02:13:02.621Z,81.15
2023-01-12T02:15:04.120Z,80.68
2023-01-12T02:17:05.348Z,80.04
2023-01-12T02:19:07.066Z,80.73
2023-01-12T02:21:08.629Z,80.63
2023-01-12T02:23:09.987Z,80.52
2023-01-12T02:25:11.399Z,80.1
2023-01-12T02:27:12.996Z,80.98
2023-01-12T02:29:14.420Z,80.75
2023-01-12T02:31:16.051Z,80.18
2023-01-12T02:33:17.373Z,80.29
2023-01-12T02:37:19.670Z,79.98
2023-01-12T02:39:21.283Z,80.5
2023-01-12T02:41:23.188Z,79.87
2023-01-12T02:43:24.710Z,80.24
2023-01-12T02:47:27.601Z,79.92
2023-01-12T02:49:28.568Z,80.06
2023-01-12T02:51:29.975Z,79.84
2023-01-12T02:53:31.219Z,80.16
2023-01-12T02:55:32.749Z,79.18
2023-01-12T02:57:34.075Z,79.33
2023-01-12T02:59:35.868Z,79.42
2023-01-12T03:01:37.081Z,78.67
2023-01-12T03:03:38.507Z,78.63
2023-01-12T03:05:40.305Z,79.06
2023-01-12T03:07:42.177Z,79.1
2023-01-12T03:09:43.388Z,78.31
2023-01-12T03:11:44.491Z,78.35
2023-01-12T03:13:45.770Z,78.4
2023-01-12T03:15:47.769Z,77.91
2023-01-12T03:17:49.563Z,78.4
2023-01-12T03:19:50.771Z,77.99
2023-01-12T03:21:52.024Z,78.56
2023-01-12T03:23:53.368Z,78.78
2023-01-12T03:25:54.980Z,78.98
2023-01-12T03:29:58.084Z,79.3
2023-01-12T03:31:59.525Z,78.62
2023-01-12T03:34:01.213Z,78.42
2023-01-12T03:36:02.940Z,79.32
2023-01-12T03:38:04.596Z,79.16
2023-01-12T03:40:05.949Z,78.56
2023-01-12T03:42:07.399Z,78.61
2023-01-12T03:44:09.221Z,79
2023-01-12T03:46:10.244Z,79.21
2023-01-12T03:48:11.983Z,79.48
2023-01-12T03:50:13.760Z,78.41
2023-01-12T03:52:15.554Z,78.4
2023-01-12T03:54:17.018Z,78.42
2023-01-12T03:56:18.235Z,78.56
2023-01-12T03:58:19.743Z,78.26
2023-01-12T04:00:21.114Z,78.34
2023-01-12T04:02:22.706Z,78.37
2023-01-12T04:04:24.658Z,78.86
2023-01-12T04:06:26.293Z,78.74
2023-01-12T04:08:28.214Z,78.93
2023-01-12T04:12:31.243Z,79.19
2023-01-12T04:14:32.298Z,79.27
2023-01-12T04:16:33.656Z,78.88
2023-01-12T04:18:35.093Z,79.25
2023-01-12T04:20:36.089Z,79.79
2023-01-12T04:22:37.857Z,79.38
2023-01-12T04:24:39.477Z,79.67
2023-01-12T04:26:40.532Z,79.6
2023-01-12T04:28:42.441Z,80.03
2023-01-12T04:30:44.312Z,80.04
2023-01-12T04:32:45.878Z,79.54
2023-01-12T04:34:47.806Z,79.91
2023-01-12T04:36:49.124Z,80.01
2023-01-12T04:38:50.238Z,79.62
2023-01-12T04:40:51.388Z,79.65
2023-01-12T04:42:52.980Z,80.3
2023-01-12T04:44:54.066Z,80.68
2023-01-12T04:46:55.881Z,79.25
2023-01-12T04:48:57.625Z,79.59
2023-01-12T04:50:59.096Z,79.24
2023-01-12T04:55:01.715Z,79.5
2023-01-12T04:57:03.591Z,78.97
2023-01-12T04:59:05.544Z,79.3
2023-01-12T05:01:07.300Z,79.31
2023-01-12T05:03:08.774Z,78.96
2023-01-12T05:05:10.491Z,79.03
2023-01-12T05:07:11.835Z,78.96
2023-01-12T05:09:12.963Z,79.32
2023-01-12T05:11:14.603Z,78.5
2023-01-12T05:13:15.781Z,78.76
2023-01-12T05:15:17.497Z,78.91
2023-01-12T05:17:18.946Z,77.79
2023-01-12T05:19:20.212Z,78.53
2023-01-12T05:21:21.365Z,77.78
2023-01-12T05:23:22.748Z,78.5
2023-01-12T05:27:25.674Z,78.42
2023-01-12T05:29:27.103Z,78.07
2023-01-12T05:31:28.062Z,77.32
2023-01-12T05:33:29.025Z,77.93
2023-01-12T05:37:32.378Z,77.78
2023-01-12T05:39:33.641Z,78.04
2023-01-12T05:41:35.365Z,78.6
2023-01-12T05:43:37.199Z,78.6
2023-01-12T05:45:38.365Z,78.37
2023-01-12T05:47:40.200Z,78.05
2023-01-12T05:49:41.419Z,78.45
2023-01-12T05:51:43.200Z,78.04
2023-01-12T05:53:45.043Z,78.4
2023-01-12T05:55:46.529Z,78.52
2023-01-12T05:57:47.767Z,78.84
2023-01-12T05:59:48.779Z,79.12
2023-01-12T06:01:50.135Z,78.68
2023-01-12T06:03:51.642Z,80.07
2023-01-12T06:05:52.614Z,80.04
2023-01-12T06:07:54.039Z,80.52
2023-01-12T06:09:55.850Z,79.92
2023-01-12T06:11:57.227Z,81.16
2023-01-12T06:13:58.635Z,81.65
2023-01-12T06:15:59.694Z,81.55
2023-01-12T06:18:01.016Z,81.31
2023-01-12T06:20:01.976Z,81.93
2023-01-12T06:22:03.358Z,82.31
2023-01-12T06:26:08.545Z,83.04
2023-01-12T06:28:09.008Z,83.31
2023-01-12T06:30:10.044Z,83.05
2023-01-12T06:32:11.040Z,83.01
2023-01-12T06:36:13.737Z,83.18
2023-01-12T06:38:15.671Z,82.76
2023-01-12T06:40:16.569Z,83.02
2023-01-12T06:42:18.369Z,82.89
2023-01-12T06:44:20.094Z,83.35
2023-01-12T06:46:21.332Z,83.31
2023-01-12T06:48:23.180Z,83.16
2023-01-12T06:50:24.355Z,83.06
2023-01-12T06:52:25.585Z,82.89
2023-01-12T06:54:27.398Z,83.21
2023-01-12T06:56:28.973Z,82.7
2023-01-12T06:58:30.119Z,83.09
2023-01-12T07:00:31.555Z,82.9
2023-01-12T07:02:33.157Z,82.52
2023-01-12T07:04:34.236Z,82.09
2023-01-12T07:06:35.986Z,82.07
2023-01-12T07:08:46.112Z,81.77
2023-01-12T07:10:38.902Z,81.81
2023-01-12T07:12:40.236Z,81.66
2023-01-12T07:14:42.140Z,82.19
2023-01-12T07:18:45.167Z,81.9
2023-01-12T07:20:46.526Z,82.26
2023-01-12T07:22:48.369Z,82.06
2023-01-12T07:24:49.808Z,82.19
2023-01-12T07:26:51.052Z,81.78
2023-01-12T07:28:52.692Z,81.88
2023-01-12T07:30:53.920Z,81.62
2023-01-12T07:32:55.186Z,81.47
2023-01-12T07:34:56.819Z,81.75
2023-01-12T07:36:58.106Z,81.46
2023-01-12T07:38:59.597Z,81.55
2023-01-12T07:41:00.896Z,81.4
2023-01-12T07:43:02.436Z,81.35
2023-01-12T07:45:03.356Z,81.39
2023-01-12T07:45:47.183Z,80.91
2023-01-12T07:47:48.333Z,81.74
2023-01-12T07:49:49.701Z,81.22
2023-01-12T07:51:51.622Z,81.65
2023-01-12T07:55:54.917Z,82.02
2023-01-12T07:57:55.872Z,82.56
2023-01-12T07:59:56.854Z,82.78
2023-01-12T08:01:57.976Z,82.11
2023-01-12T08:03:59.603Z,83.05
2023-01-12T08:06:01.303Z,83.38
2023-01-12T08:08:03.689Z,84.38
2023-01-12T08:10:04.886Z,84.43
2023-01-12T08:12:06.753Z,84.45
2023-01-12T08:14:08.654Z,84.87
2023-01-12T08:16:10.257Z,85.19
2023-01-12T08:18:11.966Z,84.99
2023-01-12T08:20:13.760Z,84.92
2023-01-12T08:22:15.557Z,84.58
2023-01-12T08:24:17.326Z,83.66
2023-01-12T08:28:20.060Z,82.89
2023-01-12T08:30:21.294Z,83.32
2023-01-12T08:32:22.596Z,82.79
2023-01-12T08:34:23.516Z,82.92
2023-01-12T08:38:26.535Z,81.99
2023-01-12T08:40:27.512Z,82.07
2023-01-12T08:42:31.567Z,82.21
2023-01-12T08:44:31.063Z,81.71
2023-01-12T08:46:32.586Z,82
2023-01-12T08:48:33.922Z,81.15
2023-01-12T08:50:34.854Z,81.08
2023-01-12T08:52:36.080Z,81.6
2023-01-12T08:54:37.412Z,81.04
2023-01-12T08:56:38.959Z,80.97
2023-01-12T08:58:40.576Z,80.75
2023-01-12T09:00:42.509Z,80.94
2023-01-12T09:02:44.975Z,81.63
2023-01-12T09:04:46.023Z,80.6
2023-01-12T09:06:47.559Z,81.05
2023-01-12T09:08:49.147Z,81.1
2023-01-12T09:10:50.816Z,80.99
2023-01-12T09:12:52.753Z,81.27
2023-01-12T09:14:54.155Z,81.67
2023-01-12T09:16:55.475Z,81.53
2023-01-12T09:18:56.461Z,81.7
2023-01-12T09:20:57.428Z,81.89
2023-01-12T09:22:59.227Z,81.76
2023-01-12T09:27:01.935Z,82.02
2023-01-12T09:29:03.176Z,81.95
2023-01-12T09:31:04.623Z,82.3
2023-01-12T09:33:06.194Z,83.26
2023-01-12T09:35:07.635Z,83.38
2023-01-12T09:37:09.435Z,83.72
2023-01-12T09:39:15.562Z,83.54
2023-01-12T09:43:14.434Z,84.02
2023-01-12T09:45:16.185Z,84.54
2023-01-12T09:47:17.538Z,85.2
2023-01-12T09:49:18.488Z,85.47
2023-01-12T09:53:21.552Z,86.04
2023-01-12T09:55:22.705Z,85.84
2023-01-12T09:57:28.967Z,86.27
2023-01-12T09:59:24.739Z,85.88
2023-01-12T10:01:29.453Z,85.39
2023-01-12T10:03:27.736Z,85.41
2023-01-12T10:05:38.680Z,85.95
2023-01-12T10:07:30.287Z,85.18
2023-01-12T10:09:31.919Z,85.05
2023-01-12T10:11:33.039Z,84.92
2023-01-12T10:13:34.721Z,85.13
2023-01-12T10:15:35.957Z,84.62
2023-01-12T10:17:50.227Z,84.12
2023-01-12T10:19:38.977Z,84.13
2023-01-12T10:21:40.414Z,84.6
2023-01-12T10:23:41.412Z,84.6
2023-01-12T10:25:42.718Z,84.43
2023-01-12T10:27:43.798Z,84.73
2023-01-12T10:29:44.752Z,84.48
2023-01-12T10:31:46.035Z,84.38
2023-01-12T10:33:47.940Z,84.08
2023-01-12T10:35:49.441Z,84.05
2023-01-12T10:37:51.211Z,84.17
2023-01-12T10:41:54.186Z,83.42
2023-01-12T10:43:55.386Z,82.6
2023-01-12T10:45:56.387Z,82.55
2023-01-12T10:47:57.659Z,82.48
2023-01-12T10:51:59.915Z,81.95
2023-01-12T10:54:01.026Z,82.31
2023-01-12T10:56:02.753Z,81.27
2023-01-12T10:58:04.365Z,81.79
2023-01-12T11:00:06.172Z,81.29
2023-01-12T11:02:07.795Z,80.49
2023-01-12T11:04:08.861Z,80.19
2023-01-12T11:06:10.501Z,80.27
2023-01-12T11:08:12.027Z,80.25
2023-01-12T11:10:13.488Z,79.78
2023-01-12T11:12:14.567Z,79.74
2023-01-12T11:14:19.545Z,79.7
2023-01-12T11:16:16.600Z,79.58
2023-01-12T11:18:17.970Z,79.49
2023-01-12T11:20:29.031Z,78.86
2023-01-12T11:22:20.337Z,79.18
2023-01-12T11:24:21.315Z,79.06
2023-01-12T11:26:23.037Z,78.09
2023-01-12T11:28:24.141Z,78.26
2023-01-12T11:30:25.465Z,77.87
2023-01-12T11:34:28.731Z,78.04
2023-01-12T11:36:30.353Z,77.72
2023-01-12T11:38:32.110Z,77.74
2023-01-12T11:40:33.170Z,77.7
2023-01-12T11:42:34.327Z,77.25
2023-01-12T11:44:36.117Z,77.13
2023-01-12T11:46:37.847Z,77.59
2023-01-12T11:48:38.832Z,76.81
2023-01-12T11:50:40.390Z,76.38
2023-01-12T11:52:42.306Z,76.17
2023-01-12T11:54:43.437Z,76.33
2023-01-12T11:56:45.073Z,76.53
2023-01-12T11:58:46.858Z,75.53
2023-01-12T12:00:48.240Z,76.49
2023-01-12T12:02:50.107Z,75.78
2023-01-12T12:06:52.895Z,75.9
2023-01-12T12:08:54.310Z,75.95
2023-01-12T12:10:56.239Z,75.97
2023-01-12T12:12:58.082Z,76.15
2023-01-12T12:17:00.556Z,76.11
2023-01-12T12:19:02.359Z,76.59
2023-01-12T12:21:04.103Z,76.56
2023-01-12T12:23:05.587Z,75.96
2023-01-12T12:25:07.189Z,76.28
2023-01-12T12:27:08.631Z,76.56
2023-01-12T12:29:10.014Z,76.98
2023-01-12T12:31:11.005Z,76.17
2023-01-12T12:33:11.973Z,76.56
2023-01-12T12:35:13.329Z,76.6
2023-01-12T12:37:15.108Z,76.7
2023-01-12T12:39:16.866Z,76.73
2023-01-12T12:41:18.757Z,76.72
2023-01-12T12:43:20.535Z,76.37
2023-01-12T12:45:22.311Z,76.45
2023-01-12T12:47:23.673Z,76.32
2023-01-12T12:49:24.683Z,76.69
2023-01-12T12:51:25.749Z,76.65
2023-01-12T12:53:27.019Z,76.23
2023-01-12T12:55:28.276Z,76.71
2023-01-12T12:57:29.812Z,76.86
2023-01-12T12:59:31.460Z,76.93
2023-01-12T13:01:33.460Z,77.28
2023-01-12T13:05:36.756Z,77.07
2023-01-12T13:07:37.779Z,77.12
2023-01-12T13:09:38.809Z,77.03
2023-01-12T13:11:39.748Z,76.85
2023-01-12T13:15:42.524Z,77.48
2023-01-12T13:17:44.095Z,77.36
2023-01-12T13:19:45.930Z,76.99
2023-01-12T13:21:47.230Z,77.37
2023-01-12T13:23:48.886Z,77.51
2023-01-12T13:25:50.388Z,77.54
2023-01-12T13:27:59.498Z,77.08
2023-01-12T13:29:52.454Z,77.27
2023-01-12T13:31:54.115Z,77.56
2023-01-12T13:33:55.384Z,77.54
2023-01-12T13:35:56.746Z,77.63
2023-01-12T13:37:58.571Z,77.17
2023-01-12T13:40:00.326Z,77.15
2023-01-12T13:42:01.848Z,77.36
2023-01-12T13:44:03.594Z,77.12
2023-01-12T13:46:05.118Z,77.16
2023-01-12T13:48:06.876Z,77.42
2023-01-12T13:50:08.661Z,76.95
2023-01-12T13:52:10.071Z,76.53
2023-01-12T13:54:11.256Z,77.11
2023-01-12T13:58:14.195Z,77.32
2023-01-12T14:00:15.817Z,77.36
2023-01-12T14:02:17.348Z,77.34
2023-01-12T14:04:20.357Z,77.51
2023-01-12T14:06:20.208Z,77.55
2023-01-12T14:08:21.726Z,77.4
2023-01-12T14:10:22.832Z,77.69
2023-01-12T14:12:24.210Z,77.31
2023-01-12T14:14:25.151Z,78.16
2023-01-12T14:16:26.989Z,77.77
2023-01-12T14:18:28.172Z,77.78
2023-01-12T14:20:29.570Z,77.68
2023-01-12T14:22:30.827Z,77.36
2023-01-12T14:24:32.623Z,77.52
2023-01-12T14:26:34.321Z,77.45
2023-01-12T14:30:37.884Z,77.68
2023-01-12T14:31:21.727Z,77.64
2023-01-12T14:35:24.061Z,77.9
2023-01-12T14:37:25.177Z,77.74
2023-01-12T14:41:28.363Z,77.76
2023-01-12T14:43:30.120Z,77.39
2023-01-12T14:45:31.226Z,77.48
2023-01-12T14:47:34.687Z,77.1
2023-01-12T14:49:34.674Z,77.44
2023-01-12T14:51:36.605Z,77.45
2023-01-12T14:53:38.465Z,77.48
2023-01-12T14:55:40.007Z,76.87
2023-01-12T14:57:41.723Z,77.52
2023-01-12T14:59:42.620Z,77.44
2023-01-12T15:01:44.286Z,77.52
2023-01-12T15:03:47.012Z,77.56
2023-01-12T15:05:46.582Z,77.49
2023-01-12T15:07:47.601Z,77.48
2023-01-12T15:09:49.099Z,77.14
2023-01-12T15:11:50.872Z,77.47
2023-01-12T15:13:52.702Z,77.85
2023-01-12T15:15:53.714Z,77.94
2023-01-12T15:17:55.186Z,77.26
2023-01-12T15:19:56.725Z,77.36
2023-01-12T15:24:00.041Z,77.21
2023-01-12T15:26:01.409Z,77.45
2023-01-12T15:28:02.438Z,77.32
2023-01-12T15:30:04.084Z,77.12
2023-01-12T15:34:06.328Z,77.94
2023-01-12T15:36:07.377Z,77.82
2023-01-12T15:38:08.898Z,77.94
2023-01-12T15:40:09.979Z,78.19
2023-01-12T15:42:10.922Z,78.27
2023-01-12T15:44:12.784Z,78.46
2023-01-12T15:46:13.811Z,78.86
2023-01-12T15:48:15.257Z,78.93
2023-01-12T15:50:16.186Z,79.07
2023-01-12T15:52:17.573Z,78.84
2023-01-12T15:54:18.666Z,79.49
2023-01-12T15:56:20.501Z,79.38
2023-01-12T15:58:21.583Z,78.3
2023-01-12T16:00:23.180Z,78.67
2023-01-12T16:02:24.090Z,78.61
2023-01-12T16:04:41.910Z,78.74
2023-01-12T16:06:27.129Z,78.67
2023-01-12T16:08:28.172Z,78.94
2023-01-12T16:10:29.546Z,78.66
2023-01-12T16:12:31.419Z,79.08
2023-01-12T16:16:35.186Z,78.68
2023-01-12T16:18:36.242Z,78.95
2023-01-12T16:20:37.804Z,78.89
2023-01-12T16:22:39.295Z,79.02
2023-01-12T16:24:40.851Z,78.7
2023-01-12T16:26:42.764Z,79.06
2023-01-12T16:28:43.917Z,78.92
2023-01-12T16:30:45.096Z,79.02
2023-01-12T16:32:47.125Z,78.53
2023-01-12T16:34:47.819Z,78.71
2023-01-12T16:36:49.420Z,78.28
2023-01-12T16:38:50.826Z,78.5
2023-01-12T16:40:52.278Z,78.46
2023-01-12T16:42:53.903Z,78.67
2023-01-12T16:44:55.687Z,78.58
2023-01-12T16:46:57.342Z,77.71
2023-01-12T16:48:58.792Z,77.99
2023-01-12T16:51:00.178Z,77.17
2023-01-12T16:53:01.145Z,77.5
2023-01-12T16:55:02.847Z,77.19
2023-01-12T16:59:05.991Z,77.75
2023-01-12T17:01:07.708Z,77.58
2023-01-12T17:03:08.655Z,77.3
2023-01-12T17:05:09.835Z,77.75
2023-01-12T17:07:10.959Z,77.69
2023-01-12T17:09:12.154Z,77.24
2023-01-12T17:11:13.829Z,77.43
2023-01-12T17:13:15.014Z,76.45
2023-01-12T17:15:16.361Z,76.72
2023-01-12T17:17:18.185Z,76.5
2023-01-12T17:19:19.814Z,76.66
2023-01-12T17:21:20.915Z,76.91
2023-01-12T17:23:22.084Z,76.6
2023-01-12T17:25:22.987Z,77.18
2023-01-12T17:27:24.402Z,77.42
2023-01-12T17:31:27.905Z,77.76
2023-01-12T17:33:28.819Z,78.02
2023-01-12T17:35:29.746Z,77.79
2023-01-12T17:37:31.100Z,78.15
2023-01-12T17:39:32.526Z,77.93
2023-01-12T17:41:34.237Z,78.17
2023-01-12T17:43:35.742Z,77.79
2023-01-12T17:47:38.535Z,77.28
2023-01-12T17:49:39.897Z,77.46
2023-01-12T17:51:41.158Z,77.75
2023-01-12T17:53:42.096Z,77.27
2023-01-12T17:57:44.754Z,77.22
2023-01-12T17:59:46.606Z,76.84
2023-01-12T18:01:48.119Z,76.55
2023-01-12T18:03:49.149Z,76.53
2023-01-12T18:06:02.757Z,76.69
2023-01-12T18:07:52.481Z,76.49
2023-01-12T18:09:54.150Z,76.36
2023-01-12T18:11:55.229Z,76.45
2023-01-12T18:13:56.317Z,76.57
2023-01-12T18:15:57.888Z,76.56
2023-01-12T18:17:59.164Z,76.96
2023-01-12T18:20:00.982Z,76.98
2023-01-12T18:22:01.991Z,77.36
2023-01-12T18:24:03.124Z,76.95
2023-01-12T18:26:04.035Z,77.42
2023-01-12T18:28:14.801Z,77.74
2023-01-12T18:30:07.277Z,77.68
2023-01-12T18:32:08.623Z,77.9
2023-01-12T18:34:10.072Z,77.96
2023-01-12T18:36:11.867Z,77
2023-01-12T18:40:14.958Z,78.04
2023-01-12T18:42:16.764Z,78.33
2023-01-12T18:44:17.712Z,77.55
2023-01-12T18:46:19.349Z,78.1
2023-01-12T18:48:20.530Z,77.86
2023-01-12T18:50:21.682Z,78.06
2023-01-12T18:52:23.169Z,78.16
2023-01-12T18:54:24.911Z,78.31
2023-01-12T18:56:26.246Z,78.45
2023-01-12T18:58:27.469Z,78.73
2023-01-12T19:00:29.022Z,78.97
2023-01-12T19:02:30.815Z,78.8
2023-01-12T19:04:32.175Z,79.16
2023-01-12T19:06:33.229Z,78.55
2023-01-12T19:08:34.640Z,78.34
2023-01-12T19:12:38.141Z,78.85
2023-01-12T19:14:39.723Z,78.39
2023-01-12T19:16:41.534Z,78.41
2023-01-12T19:18:42.630Z,78.47
2023-01-12T19:22:45.212Z,78.8
2023-01-12T19:24:46.535Z,79.04
2023-01-12T19:26:47.645Z,79.08
2023-01-12T19:28:49.019Z,79.02
2023-01-12T19:30:50.537Z,78.9
2023-01-12T19:32:51.791Z,79.38
2023-01-12T19:34:56.481Z,79.54
2023-01-12T19:36:54.556Z,79.62
2023-01-12T19:38:56.236Z,80.06
2023-01-12T19:40:58.114Z,80.23
2023-01-12T19:42:59.916Z,80.82
2023-01-12T19:45:01.162Z,81.04
2023-01-12T19:47:02.323Z,80.77
2023-01-12T19:49:04.190Z,80.91
2023-01-12T19:51:06.019Z,81.06
2023-01-12T19:55:09.488Z,82.49
2023-01-12T19:57:10.798Z,82.09
2023-01-12T19:59:12.175Z,82.21
2023-01-12T20:01:13.253Z,81.94
2023-01-12T20:05:15.150Z,81.57
2023-01-12T20:07:16.787Z,81.37
2023-01-12T20:11:20.018Z,80.74
2023-01-12T20:13:21.731Z,80.32
2023-01-12T20:15:23.257Z,80.56
2023-01-12T20:17:24.258Z,80.5
2023-01-12T20:21:27.088Z,79.94
2023-01-12T20:23:28.531Z,79.98
2023-01-12T20:25:30.155Z,79.78
2023-01-12T20:27:31.963Z,79.45
2023-01-12T20:29:33.656Z,79.79
2023-01-12T20:31:35.123Z,79.56
2023-01-12T20:33:36.385Z,79.38
2023-01-12T20:35:38.104Z,79.69
2023-01-12T20:37:39.590Z,79.05
2023-01-12T20:39:41.057Z,78.93
2023-01-12T20:41:42.492Z,79.12
2023-01-12T20:43:43.400Z,79.07
2023-01-12T20:45:44.672Z,78.9
2023-01-12T20:47:45.741Z,78.3
2023-01-12T20:49:47.363Z,77.99
2023-01-12T20:51:48.987Z,78.09
2023-01-12T20:53:50.822Z,77.9
2023-01-12T20:55:52.009Z,78.07
2023-01-12T20:57:53.599Z,78.22
2023-01-12T20:59:55.024Z,78.01
2023-01-12T21:03:57.448Z,78.19
2023-01-12T21:05:59.128Z,78.31
2023-01-12T21:08:07.718Z,78.3
2023-01-12T21:10:02.454Z,78.42
2023-01-12T21:12:03.538Z,78.3
2023-01-12T21:14:05.235Z,78.21
2023-01-12T21:16:06.955Z,78.27
2023-01-12T21:18:52.029Z,78.37
2023-01-12T21:20:53.056Z,77.92
2023-01-12T21:22:54.012Z,77.68
2023-01-12T21:24:55.445Z,77.36
2023-01-12T21:26:56.452Z,77.97
2023-01-12T21:28:58.067Z,78.09
2023-01-12T21:30:59.053Z,78.33
2023-01-12T21:33:00.429Z,77.87
2023-01-12T21:35:01.754Z,78.13
2023-01-12T21:37:02.766Z,78.13
2023-01-12T21:41:05.119Z,78.64
2023-01-12T21:43:06.395Z,78.33
2023-01-12T21:45:07.981Z,79.06
2023-01-12T21:47:09.225Z,79.13
2023-01-12T21:49:10.992Z,79.32
2023-01-12T21:51:12.416Z,79.14
2023-01-12T21:53:14.119Z,78.98
2023-01-12T21:55:15.796Z,78.62
2023-01-12T21:57:16.958Z,78.41
2023-01-12T21:59:18.120Z,78.42
2023-01-12T22:01:19.670Z,78.02
2023-01-12T22:03:21.220Z,78.32
2023-01-12T22:05:22.244Z,78.28
2023-01-12T22:07:23.897Z,78.06
2023-01-12T22:09:25.057Z,77.88
2023-01-12T22:11:26.388Z,78.22
2023-01-12T22:13:27.388Z,78.41
2023-01-12T22:15:28.742Z,78.44
2023-01-12T22:17:30.178Z,78.41
2023-01-12T22:19:31.351Z,78.45
2023-01-12T22:21:32.646Z,78.72
2023-01-12T22:23:33.844Z,78.76
2023-01-12T22:25:35.588Z,78.74
2023-01-12T22:29:38.041Z,78.7
2023-01-12T22:31:39.827Z,78.48
2023-01-12T22:33:41.169Z,78.77
2023-01-12T22:35:42.579Z,78.83
2023-01-12T22:39:45.281Z,78.2
2023-01-12T22:41:47.027Z,78.27
2023-01-12T22:43:48.282Z,78.43
2023-01-12T22:45:50.199Z,77.79
2023-01-12T22:47:51.165Z,78.24
2023-01-12T22:49:52.753Z,78.29
2023-01-12T22:51:54.053Z,78.08
2023-01-12T22:53:55.852Z,77.85
2023-01-12T22:55:56.958Z,77.97
2023-01-12T22:57:58.605Z,77.56
2023-01-12T23:00:00.111Z,78.02
2023-01-12T23:02:01.387Z,77.83
2023-01-12T23:04:02.867Z,77.85
2023-01-12T23:06:04.056Z,77.68
2023-01-12T23:08:05.610Z,77.05
2023-01-12T23:10:06.822Z,77
2023-01-12T23:12:08.475Z,77.07
2023-01-12T23:14:09.422Z,77.31
2023-01-12T23:16:11.169Z,76.97
2023-01-12T23:18:12.967Z,76.55
2023-01-12T23:22:15.959Z,76.66
2023-01-12T23:24:17.609Z,75.84
2023-01-12T23:26:19.145Z,76.3
2023-01-12T23:28:20.137Z,76.19
2023-01-12T23:30:21.233Z,76.26
2023-01-12T23:32:22.889Z,76.3
2023-01-12T23:34:24.214Z,75.77
2023-01-12T23:36:26.048Z,76.21
2023-01-12T23:38:27.959Z,75.87
2023-01-12T23:40:29.037Z,75.89
2023-01-12T23:42:30.052Z,75.71
2023-01-12T23:44:31.222Z,75.73
2023-01-12T23:46:32.854Z,75.29
2023-01-12T23:48:33.872Z,75.8
2023-01-12T23:50:34.908Z,75.94
2023-01-12T23:54:38.222Z,75.59
2023-01-12T23:56:39.840Z,75.53
2023-01-12T23:58:41.480Z,75.12
